Time;durP1;ratioP1;P1;durP2;ratioP2;P2;SDS_P1;SDS_P2;PMS_P1;PMS_P2;Temp;Humidity;BMP_temperature;BMP_pressure;BME280_temperature;BME280_humidity;BME280_pressure;Samples;Min_cycle;Max_cycle;Signal;HPM_P1;HPM_P2
2023/02/12 00:01:31;;;;;;;61.40;36.00;;;8.00;99.90;;;;;;2617237;54;20375;-74
2023/02/12 00:07:18;;;;;;;60.70;36.70;;;8.10;99.90;;;;;;2616969;54;20459;-74
2023/02/12 00:13:06;;;;;;;65.43;38.00;;;8.00;99.90;;;;;;2617201;54;20162;-73
2023/02/12 00:18:55;;;;;;;80.00;43.27;;;8.00;99.90;;;;;;2617106;54;20143;-75
2023/02/12 00:24:42;;;;;;;63.70;38.27;;;7.90;99.90;;;;;;2616985;54;20419;-73
2023/02/12 00:30:30;;;;;;;64.90;39.30;;;7.90;99.90;;;;;;2617016;54;20130;-74
2023/02/12 00:36:22;;;;;;;64.83;38.47;;;7.90;99.90;;;;;;2617252;54;20166;-74
2023/02/12 00:42:10;;;;;;;63.63;39.17;;;7.90;99.90;;;;;;2616866;54;20375;-74
2023/02/12 00:58:23;;;;;;;59.77;36.70;;;7.80;99.90;;;;;;2615345;54;20411;-74
2023/02/12 01:04:11;;;;;;;68.10;38.47;;;7.80;99.90;;;;;;2615581;54;20364;-72
2023/02/12 01:09:58;;;;;;;61.23;38.10;;;7.80;99.90;;;;;;2615228;54;20395;-73
2023/02/12 01:15:45;;;;;;;57.40;38.10;;;7.80;99.90;;;;;;2615494;54;20150;-73
2023/02/12 01:21:33;;;;;;;52.57;34.37;;;7.80;99.90;;;;;;2615672;54;20138;-74
2023/02/12 01:27:21;;;;;;;53.53;37.87;;;7.70;99.90;;;;;;2616574;54;21028;-74
2023/02/12 01:33:09;;;;;;;57.37;36.07;;;7.70;99.90;;;;;;2616850;54;20147;-73
2023/02/12 01:39:01;;;;;;;60.03;35.87;;;7.70;99.90;;;;;;2616623;54;20126;-75
2023/02/12 01:45:10;;;;;;;61.00;35.77;;;7.70;99.90;;;;;;2616651;54;20398;-74
2023/02/12 01:54:24;;;;;;;62.10;35.30;;;7.60;99.90;;;;;;2617191;39;20909;-74
2023/02/12 02:00:18;;;;;;;58.53;35.27;;;7.50;99.90;;;;;;2616736;54;20455;-74
2023/02/12 02:06:14;;;;;;;57.37;36.67;;;7.60;99.90;;;;;;2616577;54;20972;-75
2023/02/12 02:18:13;;;;;;;60.80;38.30;;;7.60;99.90;;;;;;2616525;54;20387;-73
2023/02/12 02:47:10;;;;;;;56.43;33.97;;;7.60;99.90;;;;;;2616445;54;20402;-74
2023/02/12 02:56:23;;;;;;;56.47;36.80;;;7.50;99.90;;;;;;2616506;54;20423;-74
2023/02/12 03:08:45;;;;;;;48.80;32.30;;;7.50;99.90;;;;;;2616304;54;20391;-73
2023/02/12 03:21:00;;;;;;;48.40;31.33;;;7.50;99.90;;;;;;2616326;54;20394;-75
2023/02/12 03:26:54;;;;;;;58.50;35.30;;;7.50;99.90;;;;;;2616229;54;20451;-74
2023/02/12 03:39:41;;;;;;;60.63;37.37;;;7.50;99.90;;;;;;2615951;54;20406;-74
2023/02/12 03:45:28;;;;;;;58.03;34.87;;;7.40;99.90;;;;;;2615990;54;20447;-74
2023/02/12 03:51:49;;;;;;;60.70;34.90;;;7.40;99.90;;;;;;2615549;54;20176;-74
2023/02/12 03:57:42;;;;;;;70.07;35.97;;;7.30;99.90;;;;;;2615540;54;20411;-74
2023/02/12 04:03:30;;;;;;;65.53;37.17;;;7.30;99.90;;;;;;2616116;54;20424;-73
2023/02/12 04:09:18;;;;;;;67.60;37.97;;;7.30;99.90;;;;;;2615791;54;20411;-74
2023/02/12 04:40:41;;;;;;;64.00;38.23;;;7.30;99.90;;;;;;2616762;54;20391;-73
2023/02/12 04:46:28;;;;;;;71.37;40.50;;;7.20;99.90;;;;;;2616872;54;20423;-72
2023/02/12 04:56:22;;;;;;;67.87;40.10;;;7.20;99.90;;;;;;2617134;54;20383;-74
2023/02/12 05:02:09;;;;;;;59.97;37.30;;;7.20;99.90;;;;;;2616982;54;20391;-74
2023/02/12 05:07:57;;;;;;;67.57;41.50;;;7.20;99.90;;;;;;2616630;54;20135;-73
2023/02/12 05:13:49;;;;;;;58.53;37.07;;;7.20;99.90;;;;;;2617021;54;20126;-75
2023/02/12 05:19:37;;;;;;;60.10;37.03;;;7.10;99.90;;;;;;2616839;54;20415;-72
2023/02/12 05:25:24;;;;;;;64.63;37.23;;;7.20;99.90;;;;;;2617148;46;20134;-74
2023/02/12 05:31:14;;;;;;;74.47;38.90;;;7.20;99.90;;;;;;2616555;54;20118;-73
2023/02/12 05:37:02;;;;;;;68.00;40.73;;;7.20;99.90;;;;;;2616852;54;20539;-74
2023/02/12 05:42:50;;;;;;;72.53;39.53;;;7.20;99.90;;;;;;2616679;54;20135;-73
2023/02/12 05:48:38;;;;;;;69.83;38.97;;;7.20;99.90;;;;;;2616745;54;20162;-73
2023/02/12 05:51:51;;;;;;;61.60;38.10;;;7.20;99.90;;;;;;2616037;47;20447;-74
2023/02/12 05:54:17;;;;;;;64.83;38.97;;;7.20;99.90;;;;;;2615875;54;20420;-75
2023/02/12 06:00:08;;;;;;;55.70;35.73;;;7.10;99.90;;;;;;2616918;54;20691;-75
2023/02/12 06:05:55;;;;;;;70.33;40.30;;;7.10;99.90;;;;;;2616440;54;20383;-74
2023/02/12 06:11:43;;;;;;;59.23;36.80;;;7.10;99.90;;;;;;2616705;54;20150;-73
2023/02/12 06:17:33;;;;;;;59.33;36.30;;;7.20;99.90;;;;;;2616630;54;20142;-74
2023/02/12 06:23:24;;;;;;;64.13;40.33;;;7.20;99.90;;;;;;2616566;54;20538;-72
2023/02/12 06:29:12;;;;;;;55.57;35.87;;;7.20;99.90;;;;;;2616672;54;20496;-72
2023/02/12 06:35:03;;;;;;;57.33;37.67;;;7.10;99.90;;;;;;2616767;54;20130;-74
2023/02/12 06:40:50;;;;;;;64.17;37.93;;;7.10;99.90;;;;;;2616813;54;20406;-72
2023/02/12 06:46:44;;;;;;;62.47;35.97;;;7.10;99.90;;;;;;2617279;39;20529;-74
2023/02/12 06:56:22;;;;;;;64.63;37.23;;;6.90;99.90;;;;;;2616394;54;20414;-74
2023/02/12 07:02:11;;;;;;;57.83;35.87;;;7.00;99.90;;;;;;2616568;54;20949;-74
2023/02/12 07:07:59;;;;;;;60.63;36.97;;;7.20;99.90;;;;;;2616670;46;20878;-74
2023/02/12 07:13:49;;;;;;;56.60;36.20;;;7.20;99.90;;;;;;2617303;31;20616;-73
2023/02/12 07:19:37;;;;;;;67.17;38.07;;;7.20;99.90;;;;;;2616512;54;20520;-74
2023/02/12 07:25:25;;;;;;;62.93;36.60;;;7.20;99.90;;;;;;2616715;54;20150;-74
2023/02/12 07:31:14;;;;;;;56.90;36.77;;;7.30;99.90;;;;;;2617085;31;20619;-74
2023/02/12 07:37:02;;;;;;;62.27;35.37;;;7.40;99.90;;;;;;2616354;54;20435;-74
2023/02/12 07:40:07;;;;;;;59.17;37.20;;;7.40;99.90;;;;;;2616510;54;20423;-75
2023/02/12 07:42:32;;;;;;;60.43;38.80;;;7.50;99.90;;;;;;2616808;39;20569;-74
2023/02/12 07:48:20;;;;;;;65.73;38.13;;;7.60;99.90;;;;;;2616215;54;20119;-75
2023/02/12 07:54:09;;;;;;;59.90;36.73;;;7.70;99.90;;;;;;2616622;39;20657;-73
2023/02/12 07:59:56;;;;;;;54.87;34.60;;;7.80;99.90;;;;;;2616244;54;20382;-74
2023/02/12 08:05:44;;;;;;;50.60;34.43;;;7.90;99.90;;;;;;2616258;54;20126;-73
2023/02/12 08:11:32;;;;;;;61.13;36.87;;;7.90;99.90;;;;;;2616301;54;20135;-73
2023/02/12 08:17:20;;;;;;;56.80;37.00;;;8.00;99.90;;;;;;2616570;54;20134;-75
2023/02/12 08:23:07;;;;;;;73.30;36.90;;;8.00;99.90;;;;;;2617381;39;20549;-73
2023/02/12 08:29:00;;;;;;;52.23;34.40;;;8.10;99.90;;;;;;2616844;54;20126;-73
2023/02/12 08:34:47;;;;;;;51.90;34.77;;;8.30;99.90;;;;;;2616898;54;20367;-72
2023/02/12 08:40:35;;;;;;;55.50;34.63;;;8.60;99.90;;;;;;2617299;54;20153;-73
2023/02/12 08:46:28;;;;;;;51.10;36.47;;;8.70;99.90;;;;;;2616927;39;20501;-74
2023/02/12 08:56:28;;;;;;;47.47;33.10;;;8.70;99.90;;;;;;2616822;54;20398;-74
2023/02/12 09:02:16;;;;;;;56.37;37.17;;;8.90;99.90;;;;;;2617108;54;20511;-74
2023/02/12 09:08:04;;;;;;;49.67;35.07;;;9.00;99.90;;;;;;2617231;54;20166;-74
2023/02/12 09:13:52;;;;;;;54.80;37.00;;;9.00;99.90;;;;;;2617069;39;20526;-73
2023/02/12 09:19:43;;;;;;;48.37;32.33;;;9.10;99.90;;;;;;2617237;39;20864;-74
2023/02/12 09:25:33;;;;;;;50.17;31.17;;;9.40;99.90;;;;;;2616629;54;20394;-74
2023/02/12 09:31:29;;;;;;;58.00;36.60;;;9.30;99.90;;;;;;2617313;39;20767;-73
2023/02/12 09:37:16;;;;;;;54.50;38.57;;;9.50;99.90;;;;;;2616736;54;21008;-74
2023/02/12 09:50:02;;;;;;;46.83;33.00;;;9.70;99.90;;;;;;2616573;54;20419;-74
2023/02/12 10:05:35;;;;;;;37.03;27.87;;;9.70;99.90;;;;;;2616636;54;20371;-73
2023/02/12 10:11:35;;;;;;;32.47;25.20;;;9.90;99.90;;;;;;2616710;54;21060;-72
2023/02/12 10:17:36;;;;;;;34.10;27.70;;;10.20;99.90;;;;;;2616244;54;20524;-74
2023/02/12 10:27:32;;;;;;;37.83;28.80;;;10.70;99.90;;;;;;2614965;54;20969;-74
2023/02/12 10:39:55;;;;;;;34.57;29.63;;;11.40;99.90;;;;;;2615013;54;20391;-74
2023/02/12 10:49:05;;;;;;;41.40;29.73;;;11.10;99.90;;;;;;2614881;54;20512;-75
2023/02/12 11:05:27;;;;;;;36.43;29.53;;;11.50;99.90;;;;;;2615103;54;20396;-74
2023/02/12 11:17:56;;;;;;;37.47;30.50;;;11.40;99.90;;;;;;2614952;54;20526;-73
2023/02/12 11:23:46;;;;;;;41.50;30.10;;;10.90;99.90;;;;;;2614858;54;20390;-75
2023/02/12 11:29:34;;;;;;;33.33;27.57;;;10.90;99.90;;;;;;2615318;39;20891;-74
2023/02/12 11:35:24;;;;;;;36.17;29.80;;;11.00;99.90;;;;;;2614735;54;20118;-74
2023/02/12 11:47:47;;;;;;;37.33;28.00;;;10.80;99.90;;;;;;2614680;54;20480;-74
2023/02/12 11:53:40;;;;;;;36.70;28.27;;;10.30;99.90;;;;;;2617200;54;20387;-75
2023/02/12 11:59:38;;;;;;;48.53;30.23;;;10.80;99.90;;;;;;2617593;39;20773;-75
2023/02/12 12:11:46;;;;;;;32.83;26.90;;;10.80;99.90;;;;;;2617188;54;20419;-75
2023/02/12 12:23:54;;;;;;;39.53;30.53;;;10.70;99.90;;;;;;2617205;39;20776;-74
2023/02/12 12:29:57;;;;;;;39.80;28.47;;;10.90;99.90;;;;;;2617402;54;20126;-74
2023/02/12 12:36:23;;;;;;;38.93;29.83;;;10.80;99.90;;;;;;2616609;54;20468;-73
2023/02/12 12:42:20;;;;;;;36.63;30.30;;;10.70;99.90;;;;;;2616875;54;20387;-74
2023/02/12 12:48:11;;;;;;;36.73;29.77;;;10.80;99.90;;;;;;2616853;54;20395;-74
2023/02/12 12:54:19;;;;;;;46.57;30.37;;;10.90;99.90;;;;;;2616974;54;20387;-74
2023/02/12 13:35:58;;;;;;;41.70;31.07;;;10.60;99.90;;;;;;2615542;54;20415;-73
2023/02/12 13:38:29;;;;;;;42.50;33.00;;;10.70;99.90;;;;;;2615623;54;20554;-73
2023/02/12 13:54:11;;;;;;;40.07;29.40;;;10.60;99.90;;;;;;2615423;54;20467;-73
2023/02/12 13:59:59;;;;;;;42.67;31.03;;;10.80;99.90;;;;;;2615285;54;20536;-75
2023/02/12 14:05:46;;;;;;;38.70;30.03;;;10.50;99.90;;;;;;2615976;54;20413;-75
2023/02/12 14:18:33;;;;;;;36.10;26.17;;;10.60;99.90;;;;;;2616799;54;20500;-74
2023/02/12 14:24:36;;;;;;;39.17;29.97;;;10.40;99.90;;;;;;2617333;39;20780;-73
2023/02/12 14:37:17;;;;;;;37.57;29.00;;;10.40;99.90;;;;;;2615111;54;20463;-77
2023/02/12 14:49:51;;;;;;;33.13;27.70;;;10.20;99.90;;;;;;2615296;39;21308;-74
2023/02/12 14:59:47;;;;;;;38.27;28.80;;;10.20;99.90;;;;;;2614938;54;20549;-73
2023/02/12 15:24:39;;;;;;;34.47;28.37;;;10.10;99.90;;;;;;2616452;54;20392;-74
2023/02/12 15:30:33;;;;;;;37.77;28.07;;;10.00;99.90;;;;;;2617168;54;20133;-74
2023/02/12 15:36:25;;;;;;;36.70;26.53;;;9.90;99.90;;;;;;2617717;39;20747;-74
2023/02/12 15:48:38;;;;;;;34.97;27.73;;;9.90;99.90;;;;;;2617644;54;20370;-74
2023/02/12 15:54:26;;;;;;;40.20;28.60;;;9.90;99.90;;;;;;2617347;54;20387;-75
2023/02/12 16:06:51;;;;;;;31.63;24.10;;;9.80;99.90;;;;;;2617247;54;20451;-75
2023/02/12 16:12:40;;;;;;;34.17;27.93;;;9.70;99.90;;;;;;2617223;54;20484;-74
2023/02/12 16:18:28;;;;;;;39.37;27.57;;;9.70;99.90;;;;;;2617358;54;20491;-74
2023/02/12 16:24:25;;;;;;;59.07;27.90;;;9.70;99.90;;;;;;2617357;54;20238;-73
2023/02/12 16:36:58;;;;;;;31.60;24.63;;;9.50;99.90;;;;;;2615862;54;20533;-74
2023/02/12 16:42:47;;;;;;;32.47;24.53;;;9.50;99.90;;;;;;2615932;54;20383;-72
2023/02/12 16:54:54;;;;;;;32.60;26.60;;;9.50;99.90;;;;;;2615752;54;20404;-75
2023/02/12 17:04:13;;;;;;;33.90;25.20;;;9.50;99.90;;;;;;2615804;54;20456;-74
2023/02/12 17:10:00;;;;;;;34.00;27.23;;;9.40;99.90;;;;;;2616226;39;20810;-74
2023/02/12 17:15:55;;;;;;;40.33;29.23;;;9.40;99.90;;;;;;2615768;54;20412;-73
2023/02/12 17:21:45;;;;;;;36.00;26.93;;;9.40;99.90;;;;;;2615712;54;20406;-74
2023/02/12 17:27:32;;;;;;;41.83;29.13;;;9.30;99.90;;;;;;2615634;54;20415;-74
2023/02/12 17:33:19;;;;;;;34.10;27.00;;;9.30;99.90;;;;;;2616042;54;20123;-76
2023/02/12 17:39:09;;;;;;;36.70;27.33;;;9.20;99.90;;;;;;2615758;54;20399;-73
2023/02/12 17:44:58;;;;;;;39.30;28.93;;;9.20;99.90;;;;;;2616534;54;20952;-74
2023/02/12 17:50:53;;;;;;;39.97;29.73;;;9.20;99.90;;;;;;2616500;54;20929;-75
2023/02/12 17:56:41;;;;;;;40.30;31.00;;;9.30;99.90;;;;;;2617065;54;20411;-73
2023/02/12 17:59:33;;;;;;;37.77;28.93;;;9.30;99.90;;;;;;2616320;46;20399;-75
2023/02/12 18:05:51;;;;;;;40.30;29.60;;;9.30;99.90;;;;;;2616926;54;20430;-75
2023/02/12 18:11:41;;;;;;;41.47;29.13;;;9.20;99.90;;;;;;2617400;54;20547;-74
2023/02/12 18:17:29;;;;;;;38.70;29.20;;;9.30;99.90;;;;;;2617683;39;20771;-74
2023/02/12 18:23:17;;;;;;;48.40;31.90;;;9.30;99.90;;;;;;2617154;39;20774;-75
2023/02/12 18:29:05;;;;;;;48.30;32.33;;;9.30;99.90;;;;;;2616811;54;20395;-74
2023/02/12 18:34:53;;;;;;;42.27;30.03;;;9.30;99.90;;;;;;2616461;54;20141;-75
2023/02/12 18:40:40;;;;;;;45.17;32.53;;;9.30;99.90;;;;;;2616585;54;20139;-75
2023/02/12 18:46:30;;;;;;;44.77;31.27;;;9.30;99.90;;;;;;2616854;54;20119;-74
2023/02/12 18:49:15;;;;;;;46.07;30.93;;;9.30;99.90;;;;;;2616138;47;20408;-73
2023/02/12 18:51:41;;;;;;;43.63;30.93;;;9.30;99.90;;;;;;2616198;47;20383;-74
2023/02/12 18:57:29;;;;;;;44.57;31.20;;;9.20;99.90;;;;;;2617366;39;20769;-74
2023/02/12 19:06:44;;;;;;;39.40;29.57;;;9.20;99.90;;;;;;2616382;54;20394;-74
2023/02/12 19:12:32;;;;;;;39.57;30.27;;;9.20;99.90;;;;;;2616969;54;20384;-74
2023/02/12 19:18:20;;;;;;;44.23;32.67;;;9.20;99.90;;;;;;2616784;54;20126;-75
2023/02/12 19:24:12;;;;;;;44.53;32.30;;;9.20;99.90;;;;;;2616721;54;20118;-75
2023/02/12 19:30:00;;;;;;;49.00;34.30;;;9.20;99.90;;;;;;2616558;54;20956;-75
2023/02/12 19:33:04;;;;;;;46.63;34.47;;;9.20;99.90;;;;;;2616108;54;20419;-75
2023/02/12 19:35:29;;;;;;;47.23;33.10;;;9.10;99.90;;;;;;2615805;47;20403;-74
2023/02/12 19:41:23;;;;;;;46.77;34.33;;;9.10;99.90;;;;;;2616520;54;20230;-74
2023/02/12 19:47:10;;;;;;;42.07;31.20;;;9.10;99.90;;;;;;2616576;54;20395;-74
2023/02/12 19:52:58;;;;;;;46.77;32.10;;;9.10;99.90;;;;;;2616797;54;20162;-74
2023/02/12 19:58:46;;;;;;;48.67;33.87;;;9.00;99.90;;;;;;2616366;54;20118;-75
2023/02/12 20:04:51;;;;;;;42.90;31.70;;;9.00;99.90;;;;;;2615050;54;20143;-75
2023/02/12 20:10:40;;;;;;;42.70;34.17;;;9.00;99.90;;;;;;2615510;39;20542;-76
2023/02/12 20:16:33;;;;;;;44.97;31.67;;;9.00;99.90;;;;;;2615869;54;20371;-74
2023/02/12 20:22:20;;;;;;;46.60;32.43;;;9.10;99.90;;;;;;2615834;54;20363;-75
2023/02/12 20:28:07;;;;;;;38.60;29.80;;;9.00;99.90;;;;;;2616096;54;20227;-75
2023/02/12 20:33:57;;;;;;;41.33;31.30;;;9.00;99.90;;;;;;2615833;54;20136;-74
2023/02/12 20:39:44;;;;;;;45.20;31.90;;;9.00;99.90;;;;;;2616941;54;20454;-75
2023/02/12 20:45:33;;;;;;;39.47;29.77;;;9.00;99.90;;;;;;2617275;54;20118;-75
2023/02/12 20:51:23;;;;;;;41.10;29.80;;;9.00;99.90;;;;;;2617574;54;20933;-76
2023/02/12 20:57:12;;;;;;;38.00;24.67;;;9.00;99.90;;;;;;2617286;54;20387;-75
2023/02/12 21:06:44;;;;;;;36.73;28.00;;;9.00;99.90;;;;;;2616726;54;20454;-74
2023/02/12 21:12:32;;;;;;;40.13;28.53;;;8.90;99.90;;;;;;2617260;54;20431;-74
2023/02/12 21:18:24;;;;;;;38.10;27.53;;;8.90;99.90;;;;;;2617392;54;20142;-74
2023/02/12 21:24:14;;;;;;;35.53;27.53;;;8.90;99.90;;;;;;2617656;39;20546;-73
2023/02/12 21:30:02;;;;;;;34.50;25.80;;;8.90;99.90;;;;;;2617140;54;20376;-74
2023/02/12 21:35:50;;;;;;;36.30;26.37;;;8.90;99.90;;;;;;2617026;54;20118;-75
2023/02/12 21:41:40;;;;;;;32.10;25.13;;;8.90;99.90;;;;;;2616979;54;20127;-74
2023/02/12 21:47:27;;;;;;;31.73;22.47;;;8.90;99.90;;;;;;2616752;54;20391;-74
2023/02/12 21:53:15;;;;;;;24.70;20.03;;;8.90;99.90;;;;;;2617446;39;20536;-73
2023/02/12 21:59:04;;;;;;;28.43;21.03;;;8.90;99.90;;;;;;2617028;54;20455;-74
2023/02/12 22:04:55;;;;;;;28.80;21.33;;;8.90;99.90;;;;;;2616750;54;20933;-73
2023/02/12 22:10:43;;;;;;;27.30;23.10;;;8.80;99.90;;;;;;2616715;54;20387;-73
2023/02/12 22:16:30;;;;;;;26.67;21.23;;;8.80;99.90;;;;;;2616715;54;20143;-74
2023/02/12 22:22:22;;;;;;;30.73;23.70;;;8.80;99.90;;;;;;2617247;39;20515;-75
2023/02/12 22:28:10;;;;;;;28.43;22.30;;;8.80;99.90;;;;;;2616979;54;20423;-74
2023/02/12 22:34:06;;;;;;;31.63;23.97;;;8.80;99.90;;;;;;2616906;54;20146;-74
2023/02/12 22:39:54;;;;;;;28.80;23.90;;;8.70;99.90;;;;;;2616650;54;20937;-74
2023/02/12 22:45:43;;;;;;;29.30;23.10;;;8.70;99.90;;;;;;2616684;54;20391;-74
2023/02/12 22:51:31;;;;;;;26.30;22.23;;;8.70;99.90;;;;;;2617425;31;20825;-72
2023/02/12 22:57:19;;;;;;;30.37;22.33;;;8.60;99.90;;;;;;2616561;54;20403;-74
2023/02/12 23:03:06;;;;;;;29.10;22.20;;;8.70;99.90;;;;;;2616523;54;20139;-74
2023/02/12 23:08:57;;;;;;;27.90;22.00;;;8.60;99.90;;;;;;2616609;54;20446;-73
2023/02/12 23:14:51;;;;;;;27.90;20.83;;;8.60;99.90;;;;;;2616708;54;20391;-74
2023/02/12 23:20:39;;;;;;;31.70;23.07;;;8.60;99.90;;;;;;2617035;39;21235;-74
2023/02/12 23:26:28;;;;;;;27.90;22.33;;;8.60;99.90;;;;;;2616757;54;20414;-73
2023/02/12 23:32:16;;;;;;;25.53;19.83;;;8.60;99.90;;;;;;2616604;54;20379;-75
2023/02/12 23:38:04;;;;;;;29.60;23.53;;;8.50;99.90;;;;;;2616336;54;20146;-74
2023/02/12 23:43:52;;;;;;;30.00;21.63;;;8.60;99.90;;;;;;2616699;54;20899;-74
2023/02/12 23:49:40;;;;;;;32.33;23.70;;;8.60;99.90;;;;;;2617413;54;20379;-75
2023/02/12 23:55:28;;;;;;;25.60;21.33;;;8.50;99.90;;;;;;2617849;39;20514;-74
